sensor_id;sensor_type;location;lat;lon;timestamp;pressure;altitude;pressure_sealevel;temperature;humidity
57600;BME280;43426;43.594;24.334;2023-04-08T06:59:41;101566.75;;;10.57;68.88
57600;BME280;43426;43.594;24.334;2023-04-08T07:02:06;101551.03;;;10.71;68.05
57600;BME280;43426;43.594;24.334;2023-04-08T07:04:32;101550.13;;;10.80;63.43
57600;BME280;43426;43.594;24.334;2023-04-08T07:06:57;101565.22;;;11.01;63.88
57600;BME280;43426;43.594;24.334;2023-04-08T07:09:23;101562.44;;;11.11;63.77
57600;BME280;43426;43.594;24.334;2023-04-08T07:11:48;101568.50;;;10.95;63.93
57600;BME280;43426;43.594;24.334;2023-04-08T07:14:13;101562.94;;;11.14;63.93
57600;BME280;43426;43.594;24.334;2023-04-08T07:16:39;101561.03;;;11.06;63.19
57600;BME280;43426;43.594;24.334;2023-04-08T07:19:04;101536.97;;;10.95;62.90
57600;BME280;43426;43.594;24.334;2023-04-08T07:21:30;101530.53;;;10.96;62.56
57600;BME280;43426;43.594;24.334;2023-04-08T07:23:56;101561.34;;;11.39;61.12
57600;BME280;43426;43.594;24.334;2023-04-08T07:26:21;101537.38;;;11.45;61.47
57600;BME280;43426;43.594;24.334;2023-04-08T07:28:47;101561.41;;;11.74;60.52
57600;BME280;43426;43.594;24.334;2023-04-08T07:31:14;101568.09;;;11.62;60.70
57600;BME280;43426;43.594;24.334;2023-04-08T07:33:44;101571.75;;;11.79;60.77
57600;BME280;43426;43.594;24.334;2023-04-08T07:36:12;101578.84;;;11.98;58.93
57600;BME280;43426;43.594;24.334;2023-04-08T07:38:38;101575.69;;;12.11;58.36
57600;BME280;43426;43.594;24.334;2023-04-08T07:41:06;101584.19;;;12.16;56.23
57600;BME280;43426;43.594;24.334;2023-04-08T07:43:32;101572.97;;;12.37;58.33
57600;BME280;43426;43.594;24.334;2023-04-08T07:46:02;101583.94;;;12.35;57.78
57600;BME280;43426;43.594;24.334;2023-04-08T07:48:29;101582.66;;;12.48;59.22
57600;BME280;43426;43.594;24.334;2023-04-08T07:50:55;101565.28;;;12.24;58.52
57600;BME280;43426;43.594;24.334;2023-04-08T07:53:20;101574.69;;;12.12;59.22
57600;BME280;43426;43.594;24.334;2023-04-08T07:55:47;101586.25;;;12.22;59.34
57600;BME280;43426;43.594;24.334;2023-04-08T07:58:13;101581.78;;;12.13;59.65
57600;BME280;43426;43.594;24.334;2023-04-08T08:00:38;101598.72;;;12.15;57.10
57600;BME280;43426;43.594;24.334;2023-04-08T08:03:05;101603.09;;;12.07;57.16
57600;BME280;43426;43.594;24.334;2023-04-08T08:05:30;101586.81;;;12.34;58.09
57600;BME280;43426;43.594;24.334;2023-04-08T08:07:56;101578.03;;;12.05;56.55
57600;BME280;43426;43.594;24.334;2023-04-08T08:10:21;101575.00;;;12.43;56.30
57600;BME280;43426;43.594;24.334;2023-04-08T08:12:46;101577.19;;;12.39;54.77
57600;BME280;43426;43.594;24.334;2023-04-08T08:15:12;101547.59;;;12.03;56.14
57600;BME280;43426;43.594;24.334;2023-04-08T08:17:37;101572.63;;;12.40;57.70
57600;BME280;43426;43.594;24.334;2023-04-08T08:20:05;101592.88;;;12.70;54.53
57600;BME280;43426;43.594;24.334;2023-04-08T08:22:31;101588.34;;;12.87;53.96
57600;BME280;43426;43.594;24.334;2023-04-08T08:24:57;101593.16;;;13.18;53.63
57600;BME280;43426;43.594;24.334;2023-04-08T08:27:22;101602.81;;;13.29;51.33
57600;BME280;43426;43.594;24.334;2023-04-08T08:29:48;101601.81;;;13.30;52.60
57600;BME280;43426;43.594;24.334;2023-04-08T08:32:13;101587.25;;;13.23;51.67
57600;BME280;43426;43.594;24.334;2023-04-08T08:34:41;101590.63;;;13.17;50.81
57600;BME280;43426;43.594;24.334;2023-04-08T08:37:06;101595.25;;;13.41;51.07
57600;BME280;43426;43.594;24.334;2023-04-08T08:39:32;101566.09;;;13.26;51.03
57600;BME280;43426;43.594;24.334;2023-04-08T08:41:57;101585.25;;;13.58;50.66
57600;BME280;43426;43.594;24.334;2023-04-08T08:44:23;101596.78;;;13.60;48.13
57600;BME280;43426;43.594;24.334;2023-04-08T08:46:51;101569.97;;;13.65;45.09
57600;BME280;43426;43.594;24.334;2023-04-08T08:49:17;101576.28;;;13.41;49.58
57600;BME280;43426;43.594;24.334;2023-04-08T08:51:44;101587.28;;;13.39;47.57
57600;BME280;43426;43.594;24.334;2023-04-08T08:54:09;101589.13;;;13.63;50.49
57600;BME280;43426;43.594;24.334;2023-04-08T08:56:35;101597.25;;;13.47;49.45
57600;BME280;43426;43.594;24.334;2023-04-08T08:59:00;101583.03;;;13.45;49.74
57600;BME280;43426;43.594;24.334;2023-04-08T09:01:37;101592.88;;;13.46;48.84
57600;BME280;43426;43.594;24.334;2023-04-08T09:06:41;101588.13;;;13.73;46.98
57600;BME280;43426;43.594;24.334;2023-04-08T09:09:07;101587.09;;;13.74;47.90
57600;BME280;43426;43.594;24.334;2023-04-08T09:11:40;101596.94;;;13.83;47.23
57600;BME280;43426;43.594;24.334;2023-04-08T09:14:19;101595.59;;;13.79;48.11
57600;BME280;43426;43.594;24.334;2023-04-08T09:16:46;101602.03;;;13.45;48.57
57600;BME280;43426;43.594;24.334;2023-04-08T09:19:12;101605.25;;;13.40;48.90
57600;BME280;43426;43.594;24.334;2023-04-08T09:21:38;101602.47;;;13.07;49.35
57600;BME280;43426;43.594;24.334;2023-04-08T09:24:05;101602.66;;;13.22;50.70
57600;BME280;43426;43.594;24.334;2023-04-08T09:26:30;101586.03;;;13.09;52.90
57600;BME280;43426;43.594;24.334;2023-04-08T09:29:03;101599.59;;;13.09;51.60
57600;BME280;43426;43.594;24.334;2023-04-08T09:31:33;101581.97;;;13.05;50.85
57600;BME280;43426;43.594;24.334;2023-04-08T09:34:08;101597.41;;;13.13;52.13
57600;BME280;43426;43.594;24.334;2023-04-08T09:36:34;101596.72;;;13.19;51.73
57600;BME280;43426;43.594;24.334;2023-04-08T09:39:00;101585.69;;;13.04;52.88
57600;BME280;43426;43.594;24.334;2023-04-08T09:41:27;101594.34;;;13.07;52.97
57600;BME280;43426;43.594;24.334;2023-04-08T09:43:53;101585.88;;;13.19;51.86
57600;BME280;43426;43.594;24.334;2023-04-08T09:46:30;101589.97;;;13.31;51.75
57600;BME280;43426;43.594;24.334;2023-04-08T09:49:24;101600.31;;;13.36;50.95
57600;BME280;43426;43.594;24.334;2023-04-08T09:52:03;101592.19;;;13.36;50.52
57600;BME280;43426;43.594;24.334;2023-04-08T09:57:09;101576.56;;;13.87;49.84
57600;BME280;43426;43.594;24.334;2023-04-08T09:59:48;101577.41;;;13.96;49.77
57600;BME280;43426;43.594;24.334;2023-04-08T10:02:24;101599.97;;;13.80;50.12
57600;BME280;43426;43.594;24.334;2023-04-08T10:04:54;101590.84;;;13.65;48.78
57600;BME280;43426;43.594;24.334;2023-04-08T10:07:22;101598.25;;;13.95;50.23
57600;BME280;43426;43.594;24.334;2023-04-08T10:09:48;101577.75;;;14.01;48.03
57600;BME280;43426;43.594;24.334;2023-04-08T10:12:14;101600.31;;;13.85;49.67
57600;BME280;43426;43.594;24.334;2023-04-08T10:14:40;101594.72;;;13.54;51.03
57600;BME280;43426;43.594;24.334;2023-04-08T10:17:32;101603.56;;;13.48;51.25
57600;BME280;43426;43.594;24.334;2023-04-08T10:20:00;101597.09;;;13.65;51.04
57600;BME280;43426;43.594;24.334;2023-04-08T10:25:27;101596.78;;;13.35;51.08
57600;BME280;43426;43.594;24.334;2023-04-08T10:27:53;101598.75;;;13.17;52.15
57600;BME280;43426;43.594;24.334;2023-04-08T10:32:51;101578.94;;;13.33;50.33
57600;BME280;43426;43.594;24.334;2023-04-08T10:35:16;101585.59;;;13.38;51.20
57600;BME280;43426;43.594;24.334;2023-04-08T10:37:42;101583.84;;;13.29;50.23
57600;BME280;43426;43.594;24.334;2023-04-08T10:40:18;101569.28;;;13.22;50.99
57600;BME280;43426;43.594;24.334;2023-04-08T10:42:44;101586.25;;;13.32;50.26
57600;BME280;43426;43.594;24.334;2023-04-08T10:45:09;101589.81;;;13.41;50.00
57600;BME280;43426;43.594;24.334;2023-04-08T10:47:35;101589.44;;;13.27;53.27
57600;BME280;43426;43.594;24.334;2023-04-08T10:50:11;101589.75;;;13.16;52.42
57600;BME280;43426;43.594;24.334;2023-04-08T10:52:53;101582.47;;;13.00;51.66
57600;BME280;43426;43.594;24.334;2023-04-08T10:55:23;101572.50;;;13.34;51.07
57600;BME280;43426;43.594;24.334;2023-04-08T10:57:49;101581.16;;;13.62;52.50
57600;BME280;43426;43.594;24.334;2023-04-08T11:00:38;101582.47;;;14.07;50.84
57600;BME280;43426;43.594;24.334;2023-04-08T11:03:05;101580.31;;;13.86;49.71
57600;BME280;43426;43.594;24.334;2023-04-08T11:05:32;101581.44;;;14.17;49.63
57600;BME280;43426;43.594;24.334;2023-04-08T11:08:00;101580.75;;;14.06;50.62
57600;BME280;43426;43.594;24.334;2023-04-08T11:10:26;101576.72;;;13.86;50.12
57600;BME280;43426;43.594;24.334;2023-04-08T11:12:53;101585.94;;;13.60;49.15
57600;BME280;43426;43.594;24.334;2023-04-08T11:15:20;101582.34;;;13.51;49.17
57600;BME280;43426;43.594;24.334;2023-04-08T11:17:48;101577.28;;;13.73;50.39
57600;BME280;43426;43.594;24.334;2023-04-08T11:20:14;101564.72;;;13.47;49.55
57600;BME280;43426;43.594;24.334;2023-04-08T11:22:39;101573.03;;;13.62;51.57
57600;BME280;43426;43.594;24.334;2023-04-08T11:25:08;101580.34;;;13.45;50.34
57600;BME280;43426;43.594;24.334;2023-04-08T11:27:35;101573.72;;;13.64;51.89
57600;BME280;43426;43.594;24.334;2023-04-08T11:30:01;101563.91;;;13.55;50.06
57600;BME280;43426;43.594;24.334;2023-04-08T11:32:27;101577.97;;;13.67;50.18
57600;BME280;43426;43.594;24.334;2023-04-08T11:34:55;101571.03;;;13.56;48.38
57600;BME280;43426;43.594;24.334;2023-04-08T11:37:24;101577.44;;;13.79;49.79
57600;BME280;43426;43.594;24.334;2023-04-08T11:39:50;101567.41;;;13.80;52.10
57600;BME280;43426;43.594;24.334;2023-04-08T11:42:29;101571.16;;;13.29;50.71
57600;BME280;43426;43.594;24.334;2023-04-08T11:44:59;101564.88;;;13.04;52.12
57600;BME280;43426;43.594;24.334;2023-04-08T11:47:32;101569.09;;;13.15;52.94
57600;BME280;43426;43.594;24.334;2023-04-08T11:49:57;101553.16;;;12.95;52.86
57600;BME280;43426;43.594;24.334;2023-04-08T11:52:48;101536.41;;;13.00;51.51
57600;BME280;43426;43.594;24.334;2023-04-08T11:55:28;101556.41;;;13.32;53.36
57600;BME280;43426;43.594;24.334;2023-04-08T11:57:55;101562.53;;;13.59;53.29
57600;BME280;43426;43.594;24.334;2023-04-08T12:00:22;101542.91;;;13.57;50.67
57600;BME280;43426;43.594;24.334;2023-04-08T12:02:48;101560.16;;;13.81;51.65
57600;BME280;43426;43.594;24.334;2023-04-08T12:05:14;101550.22;;;14.12;53.77
57600;BME280;43426;43.594;24.334;2023-04-08T12:07:40;101541.31;;;14.35;50.04
57600;BME280;43426;43.594;24.334;2023-04-08T12:10:07;101547.81;;;14.18;49.60
57600;BME280;43426;43.594;24.334;2023-04-08T12:12:32;101548.75;;;14.41;47.87
57600;BME280;43426;43.594;24.334;2023-04-08T12:14:58;101544.97;;;14.51;46.29
57600;BME280;43426;43.594;24.334;2023-04-08T12:17:23;101541.78;;;14.47;47.75
57600;BME280;43426;43.594;24.334;2023-04-08T12:19:49;101524.81;;;14.45;47.08
57600;BME280;43426;43.594;24.334;2023-04-08T12:22:14;101540.22;;;14.53;46.38
57600;BME280;43426;43.594;24.334;2023-04-08T12:24:40;101548.97;;;14.71;47.94
57600;BME280;43426;43.594;24.334;2023-04-08T12:27:06;101544.72;;;14.69;45.29
57600;BME280;43426;43.594;24.334;2023-04-08T12:29:31;101549.97;;;14.70;44.81
57600;BME280;43426;43.594;24.334;2023-04-08T12:31:57;101530.09;;;15.01;46.77
57600;BME280;43426;43.594;24.334;2023-04-08T12:34:22;101532.09;;;15.30;45.80
57600;BME280;43426;43.594;24.334;2023-04-08T12:36:48;101536.38;;;15.25;44.19
57600;BME280;43426;43.594;24.334;2023-04-08T12:39:14;101524.38;;;14.96;46.73
57600;BME280;43426;43.594;24.334;2023-04-08T12:41:39;101527.66;;;15.06;44.88
57600;BME280;43426;43.594;24.334;2023-04-08T12:44:05;101491.56;;;15.21;43.83
57600;BME280;43426;43.594;24.334;2023-04-08T12:46:31;101516.22;;;15.19;44.02
57600;BME280;43426;43.594;24.334;2023-04-08T12:48:56;101516.41;;;15.18;44.85
57600;BME280;43426;43.594;24.334;2023-04-08T12:51:22;101485.84;;;14.69;47.54
57600;BME280;43426;43.594;24.334;2023-04-08T12:53:47;101514.63;;;15.02;44.92
57600;BME280;43426;43.594;24.334;2023-04-08T12:56:12;101512.03;;;14.85;44.44
57600;BME280;43426;43.594;24.334;2023-04-08T12:58:38;101499.88;;;14.73;46.38
57600;BME280;43426;43.594;24.334;2023-04-08T13:01:03;101510.81;;;14.64;45.77
57600;BME280;43426;43.594;24.334;2023-04-08T13:03:29;101504.19;;;14.59;44.90
57600;BME280;43426;43.594;24.334;2023-04-08T13:05:56;101493.56;;;14.80;45.20
57600;BME280;43426;43.594;24.334;2023-04-08T13:08:23;101481.59;;;14.67;43.44
57600;BME280;43426;43.594;24.334;2023-04-08T13:10:49;101477.50;;;14.71;45.42
57600;BME280;43426;43.594;24.334;2023-04-08T13:13:14;101492.91;;;15.02;44.95
57600;BME280;43426;43.594;24.334;2023-04-08T13:15:40;101488.66;;;14.99;46.09
57600;BME280;43426;43.594;24.334;2023-04-08T13:18:06;101485.72;;;14.86;45.40
57600;BME280;43426;43.594;24.334;2023-04-08T13:20:32;101475.13;;;14.91;43.53
57600;BME280;43426;43.594;24.334;2023-04-08T13:22:57;101483.41;;;14.74;44.67
57600;BME280;43426;43.594;24.334;2023-04-08T13:25:24;101480.59;;;14.68;44.78
57600;BME280;43426;43.594;24.334;2023-04-08T13:27:50;101453.31;;;14.53;47.26
57600;BME280;43426;43.594;24.334;2023-04-08T13:30:15;101477.78;;;14.76;44.46
57600;BME280;43426;43.594;24.334;2023-04-08T13:32:40;101476.00;;;14.68;44.32
57600;BME280;43426;43.594;24.334;2023-04-08T13:35:06;101457.78;;;14.45;45.99
57600;BME280;43426;43.594;24.334;2023-04-08T13:37:32;101473.47;;;14.67;47.37
57600;BME280;43426;43.594;24.334;2023-04-08T13:39:57;101451.22;;;14.63;45.30
57600;BME280;43426;43.594;24.334;2023-04-08T13:42:22;101471.06;;;14.72;45.15
57600;BME280;43426;43.594;24.334;2023-04-08T13:44:48;101474.50;;;14.89;45.16
57600;BME280;43426;43.594;24.334;2023-04-08T13:47:13;101475.22;;;14.51;46.42
57600;BME280;43426;43.594;24.334;2023-04-08T13:49:39;101471.63;;;14.27;45.80
57600;BME280;43426;43.594;24.334;2023-04-08T13:52:05;101470.53;;;14.05;47.06
57600;BME280;43426;43.594;24.334;2023-04-08T13:54:30;101467.88;;;13.97;47.18
57600;BME280;43426;43.594;24.334;2023-04-08T13:56:56;101467.53;;;13.92;49.14
57600;BME280;43426;43.594;24.334;2023-04-08T13:59:22;101470.25;;;13.92;48.01
57600;BME280;43426;43.594;24.334;2023-04-08T14:01:51;101463.81;;;13.93;49.41
57600;BME280;43426;43.594;24.334;2023-04-08T14:04:19;101459.81;;;13.72;47.92
57600;BME280;43426;43.594;24.334;2023-04-08T14:06:46;101438.00;;;13.33;48.83
57600;BME280;43426;43.594;24.334;2023-04-08T14:09:12;101450.34;;;13.60;49.32
57600;BME280;43426;43.594;24.334;2023-04-08T14:13:22;101443.75;;;13.29;49.24
57600;BME280;43426;43.594;24.334;2023-04-08T14:15:47;101463.22;;;13.50;48.28
57600;BME280;43426;43.594;24.334;2023-04-08T14:18:14;101457.66;;;13.43;50.51
57600;BME280;43426;43.594;24.334;2023-04-08T14:20:41;101427.88;;;13.18;49.01
57600;BME280;43426;43.594;24.334;2023-04-08T14:23:07;101462.22;;;13.34;49.50
57600;BME280;43426;43.594;24.334;2023-04-08T14:25:32;101460.88;;;13.38;48.45
57600;BME280;43426;43.594;24.334;2023-04-08T14:27:57;101461.41;;;13.42;48.84
57600;BME280;43426;43.594;24.334;2023-04-08T14:30:23;101439.00;;;13.32;50.22
57600;BME280;43426;43.594;24.334;2023-04-08T14:32:48;101453.25;;;13.34;49.04
57600;BME280;43426;43.594;24.334;2023-04-08T14:35:13;101443.94;;;13.53;50.78
57600;BME280;43426;43.594;24.334;2023-04-08T14:37:39;101441.88;;;13.30;49.00
57600;BME280;43426;43.594;24.334;2023-04-08T14:40:05;101439.34;;;13.45;49.77
57600;BME280;43426;43.594;24.334;2023-04-08T14:42:30;101445.97;;;13.51;49.35
57600;BME280;43426;43.594;24.334;2023-04-08T14:44:56;101419.69;;;13.43;49.43
57600;BME280;43426;43.594;24.334;2023-04-08T14:47:25;101446.66;;;13.53;49.17
57600;BME280;43426;43.594;24.334;2023-04-08T14:49:50;101425.97;;;13.43;49.47
57600;BME280;43426;43.594;24.334;2023-04-08T14:52:15;101447.84;;;13.50;51.00
57600;BME280;43426;43.594;24.334;2023-04-08T14:54:41;101445.38;;;13.72;49.08
57600;BME280;43426;43.594;24.334;2023-04-08T14:57:09;101434.31;;;13.82;49.03
57600;BME280;43426;43.594;24.334;2023-04-08T14:59:34;101443.97;;;13.84;48.58
57600;BME280;43426;43.594;24.334;2023-04-08T15:02:00;101442.84;;;13.70;49.00
57600;BME280;43426;43.594;24.334;2023-04-08T15:04:25;101442.06;;;13.53;50.05
57600;BME280;43426;43.594;24.334;2023-04-08T15:06:50;101418.84;;;13.34;50.16
57600;BME280;43426;43.594;24.334;2023-04-08T15:09:16;101427.69;;;13.11;49.53
57600;BME280;43426;43.594;24.334;2023-04-08T15:11:42;101450.91;;;13.39;49.12
57600;BME280;43426;43.594;24.334;2023-04-08T15:14:07;101437.66;;;13.52;48.57
57600;BME280;43426;43.594;24.334;2023-04-08T15:16:32;101441.16;;;13.69;49.60
57600;BME280;43426;43.594;24.334;2023-04-08T15:18:58;101436.75;;;13.68;50.22
57600;BME280;43426;43.594;24.334;2023-04-08T15:21:24;101433.59;;;13.48;50.46
57600;BME280;43426;43.594;24.334;2023-04-08T15:23:51;101427.69;;;13.11;51.15
57600;BME280;43426;43.594;24.334;2023-04-08T15:26:16;101448.03;;;13.40;50.96
57600;BME280;43426;43.594;24.334;2023-04-08T15:28:41;101446.66;;;13.53;48.49
57600;BME280;43426;43.594;24.334;2023-04-08T15:31:07;101449.03;;;13.15;49.85
57600;BME280;43426;43.594;24.334;2023-04-08T15:33:32;101446.66;;;12.87;50.02
57600;BME280;43426;43.594;24.334;2023-04-08T15:35:59;101455.47;;;12.97;50.32
57600;BME280;43426;43.594;24.334;2023-04-08T15:38:27;101401.31;;;12.56;50.96
57600;BME280;43426;43.594;24.334;2023-04-08T15:40:53;101403.84;;;12.49;51.60
57600;BME280;43426;43.594;24.334;2023-04-08T15:43:18;101439.19;;;12.56;52.19
57600;BME280;43426;43.594;24.334;2023-04-08T15:45:44;101431.72;;;12.50;52.29
57600;BME280;43426;43.594;24.334;2023-04-08T15:48:10;101453.34;;;12.33;52.70
57600;BME280;43426;43.594;24.334;2023-04-08T15:50:36;101427.59;;;12.21;53.18
57600;BME280;43426;43.594;24.334;2023-04-08T15:53:02;101458.41;;;12.36;53.16
57600;BME280;43426;43.594;24.334;2023-04-08T15:55:27;101462.81;;;12.29;53.11
57600;BME280;43426;43.594;24.334;2023-04-08T15:57:53;101457.22;;;12.31;52.83
57600;BME280;43426;43.594;24.334;2023-04-08T16:00:21;101442.28;;;12.02;53.94
57600;BME280;43426;43.594;24.334;2023-04-08T16:02:48;101446.69;;;12.11;54.58
57600;BME280;43426;43.594;24.334;2023-04-08T16:05:13;101450.41;;;12.10;54.75
57600;BME280;43426;43.594;24.334;2023-04-08T16:07:39;101462.06;;;12.02;55.33
57600;BME280;43426;43.594;24.334;2023-04-08T16:10:05;101454.47;;;12.06;55.29
57600;BME280;43426;43.594;24.334;2023-04-08T16:12:31;101452.41;;;12.00;55.64
57600;BME280;43426;43.594;24.334;2023-04-08T16:14:57;101451.03;;;11.96;56.10
57600;BME280;43426;43.594;24.334;2023-04-08T16:17:22;101451.19;;;11.94;56.38
57600;BME280;43426;43.594;24.334;2023-04-08T16:19:49;101457.19;;;11.88;56.77
57600;BME280;43426;43.594;24.334;2023-04-08T16:22:15;101460.25;;;11.85;57.12
57600;BME280;43426;43.594;24.334;2023-04-08T16:24:41;101458.31;;;11.69;58.02
57600;BME280;43426;43.594;24.334;2023-04-08T16:27:07;101440.50;;;11.58;57.81
57600;BME280;43426;43.594;24.334;2023-04-08T16:29:32;101453.75;;;11.69;57.76
57600;BME280;43426;43.594;24.334;2023-04-08T16:31:58;101468.09;;;11.44;58.96
57600;BME280;43426;43.594;24.334;2023-04-08T16:34:23;101459.28;;;11.33;59.25
57600;BME280;43426;43.594;24.334;2023-04-08T16:36:50;101465.41;;;11.17;59.69
57600;BME280;43426;43.594;24.334;2023-04-08T16:39:19;101457.66;;;11.22;59.95
57600;BME280;43426;43.594;24.334;2023-04-08T16:41:44;101445.84;;;10.97;60.38
57600;BME280;43426;43.594;24.334;2023-04-08T16:44:10;101452.22;;;10.96;60.31
57600;BME280;43426;43.594;24.334;2023-04-08T16:46:37;101478.63;;;11.02;60.78
57600;BME280;43426;43.594;24.334;2023-04-08T16:49:05;101456.34;;;10.82;61.44
57600;BME280;43426;43.594;24.334;2023-04-08T16:51:31;101457.81;;;10.77;61.86
57600;BME280;43426;43.594;24.334;2023-04-08T16:53:56;101481.78;;;10.80;62.28
57600;BME280;43426;43.594;24.334;2023-04-08T16:56:23;101479.94;;;10.80;62.49
57600;BME280;43426;43.594;24.334;2023-04-08T16:58:50;101479.72;;;10.73;63.00
57600;BME280;43426;43.594;24.334;2023-04-08T17:01:15;101467.44;;;10.61;63.25
57600;BME280;43426;43.594;24.334;2023-04-08T17:03:41;101459.19;;;10.45;63.97
57600;BME280;43426;43.594;24.334;2023-04-08T17:06:08;101464.25;;;10.48;64.15
57600;BME280;43426;43.594;24.334;2023-04-08T17:08:33;101494.66;;;10.50;65.17
57600;BME280;43426;43.594;24.334;2023-04-08T17:11:10;101468.66;;;10.21;65.55
57600;BME280;43426;43.594;24.334;2023-04-08T17:13:37;101498.41;;;10.39;65.80
57600;BME280;43426;43.594;24.334;2023-04-08T17:16:03;101498.75;;;10.26;66.54
57600;BME280;43426;43.594;24.334;2023-04-08T17:18:29;101482.09;;;10.03;67.03
57600;BME280;43426;43.594;24.334;2023-04-08T17:20:55;101498.25;;;10.13;67.70
57600;BME280;43426;43.594;24.334;2023-04-08T17:23:21;101501.25;;;10.10;68.14
57600;BME280;43426;43.594;24.334;2023-04-08T17:25:46;101495.13;;;10.08;68.64
57600;BME280;43426;43.594;24.334;2023-04-08T17:28:12;101505.22;;;10.05;69.14
57600;BME280;43426;43.594;24.334;2023-04-08T17:30:37;101498.88;;;9.97;69.41
57600;BME280;43426;43.594;24.334;2023-04-08T17:33:04;101515.28;;;10.03;69.70
57600;BME280;43426;43.594;24.334;2023-04-08T17:35:31;101517.00;;;10.04;69.85
57600;BME280;43426;43.594;24.334;2023-04-08T17:37:56;101528.06;;;10.11;70.14
57600;BME280;43426;43.594;24.334;2023-04-08T17:40:22;101520.69;;;10.03;70.59
57600;BME280;43426;43.594;24.334;2023-04-08T17:42:48;101527.78;;;10.04;71.08
57600;BME280;43426;43.594;24.334;2023-04-08T17:45:13;101526.69;;;9.97;71.40
57600;BME280;43426;43.594;24.334;2023-04-08T17:47:40;101538.03;;;9.91;71.75
57600;BME280;43426;43.594;24.334;2023-04-08T17:50:07;101529.44;;;9.87;71.74
57600;BME280;43426;43.594;24.334;2023-04-08T17:52:32;101536.91;;;9.94;71.95
57600;BME280;43426;43.594;24.334;2023-04-08T17:54:58;101519.66;;;9.77;72.54
57600;BME280;43426;43.594;24.334;2023-04-08T17:57:24;101539.44;;;9.95;72.22
57600;BME280;43426;43.594;24.334;2023-04-08T17:59:52;101546.72;;;9.85;72.93
57600;BME280;43426;43.594;24.334;2023-04-08T18:02:18;101553.13;;;9.84;73.50
57600;BME280;43426;43.594;24.334;2023-04-08T18:04:43;101555.13;;;9.82;73.60
57600;BME280;43426;43.594;24.334;2023-04-08T18:07:09;101558.09;;;9.79;73.95
57600;BME280;43426;43.594;24.334;2023-04-08T18:09:35;101555.28;;;9.80;73.72
57600;BME280;43426;43.594;24.334;2023-04-08T18:12:00;101574.53;;;9.85;73.80
57600;BME280;43426;43.594;24.334;2023-04-08T18:14:27;101565.72;;;9.93;74.33
57600;BME280;43426;43.594;24.334;2023-04-08T18:16:53;101569.59;;;9.81;74.24
57600;BME280;43426;43.594;24.334;2023-04-08T18:19:18;101566.59;;;9.84;73.50
57600;BME280;43426;43.594;24.334;2023-04-08T18:21:44;101588.28;;;9.92;73.38
57600;BME280;43426;43.594;24.334;2023-04-08T18:24:09;101581.94;;;9.83;73.45
57600;BME280;43426;43.594;24.334;2023-04-08T18:26:35;101583.63;;;9.84;73.48
57600;BME280;43426;43.594;24.334;2023-04-08T18:29:00;101590.84;;;9.84;73.67
57600;BME280;43426;43.594;24.334;2023-04-08T18:31:26;101596.66;;;9.89;73.55
57600;BME280;43426;43.594;24.334;2023-04-08T18:33:51;101577.41;;;9.74;74.16
57600;BME280;43426;43.594;24.334;2023-04-08T18:36:16;101588.75;;;9.78;74.10
57600;BME280;43426;43.594;24.334;2023-04-08T18:38:42;101590.84;;;9.84;74.15
57600;BME280;43426;43.594;24.334;2023-04-08T18:41:09;101595.13;;;9.77;74.40
57600;BME280;43426;43.594;24.334;2023-04-08T18:43:34;101598.09;;;9.83;74.56
57600;BME280;43426;43.594;24.334;2023-04-08T18:46:02;101594.97;;;9.78;74.98
57600;BME280;43426;43.594;24.334;2023-04-08T18:48:31;101575.31;;;9.58;75.37
57600;BME280;43426;43.594;24.334;2023-04-08T18:50:57;101604.31;;;9.84;75.49
57600;BME280;43426;43.594;24.334;2023-04-08T18:53:25;101606.47;;;9.70;75.62
57600;BME280;43426;43.594;24.334;2023-04-08T18:55:52;101603.22;;;9.67;76.24
57600;BME280;43426;43.594;24.334;2023-04-08T18:58:18;101609.75;;;9.64;76.54
57600;BME280;43426;43.594;24.334;2023-04-08T19:00:44;101609.91;;;9.63;76.59
57600;BME280;43426;43.594;24.334;2023-04-08T19:03:09;101607.34;;;9.61;77.32
57600;BME280;43426;43.594;24.334;2023-04-08T19:05:35;101593.75;;;9.53;77.12
57600;BME280;43426;43.594;24.334;2023-04-08T19:08:02;101614.84;;;9.77;77.40
57600;BME280;43426;43.594;24.334;2023-04-08T19:10:33;101624.19;;;9.73;78.23
57600;BME280;43426;43.594;24.334;2023-04-08T19:12:59;101607.91;;;9.65;79.06
57600;BME280;43426;43.594;24.334;2023-04-08T19:15:25;101608.19;;;9.71;79.80
57600;BME280;43426;43.594;24.334;2023-04-08T19:17:51;101603.66;;;9.62;81.30
57600;BME280;43426;43.594;24.334;2023-04-08T19:20:17;101619.25;;;9.68;81.75
57600;BME280;43426;43.594;24.334;2023-04-08T19:22:46;101614.84;;;9.67;82.82
57600;BME280;43426;43.594;24.334;2023-04-08T19:25:15;101616.41;;;9.70;83.77
57600;BME280;43426;43.594;24.334;2023-04-08T19:27:41;101602.50;;;9.75;83.02
57600;BME280;43426;43.594;24.334;2023-04-08T19:30:07;101639.09;;;9.67;84.44
57600;BME280;43426;43.594;24.334;2023-04-08T19:32:33;101625.19;;;9.52;84.61
57600;BME280;43426;43.594;24.334;2023-04-08T19:35:00;101638.41;;;9.65;85.71
57600;BME280;43426;43.594;24.334;2023-04-08T19:37:27;101651.44;;;9.50;86.36
57600;BME280;43426;43.594;24.334;2023-04-08T19:39:53;101635.97;;;9.33;88.08
57600;BME280;43426;43.594;24.334;2023-04-08T19:42:18;101661.50;;;9.48;89.32
57600;BME280;43426;43.594;24.334;2023-04-08T19:44:46;101635.66;;;9.07;90.63
57600;BME280;43426;43.594;24.334;2023-04-08T19:47:11;101636.38;;;8.99;89.88
57600;BME280;43426;43.594;24.334;2023-04-08T19:49:37;101658.63;;;9.11;92.57
57600;BME280;43426;43.594;24.334;2023-04-08T19:52:03;101652.13;;;9.13;93.82